Port Aransas, TX (PTAT2)

Conditions for Friday

Daily
Weekly
Monthly
Marine Data Graph
Ad Blocker Enabled

Marine & Boating Location Search

Enter a coastal zip code for marine weather.

General Information

Location: 27.826 -97.051
Buoy Type: C-MAN Station
Payload: MARS payload
Owned by: NDBC
Windspeed: Measured by obtained from anemometer
Sea Surface: Measured by Intake

Weather and Wave Data

Time Temp Humidity Wind Pressure
  Air
(°F)
Water
(°F)
  Dir Speed
(kts)
Speed
(mph)
Atmo.
(in)
Tend.
(in)
20:00 56 60 28 NNW 6.0 6.9 30.24 +0.03
21:00 56 60 35 NNW 5.0 5.8 30.25 +0.04
22:00 55 60 39 North 5.0 5.8 30.26 +0.04
23:00 55 59 39 NNW 3.0 3.5 30.27 +0.03
00:00 55 59 38 West 4.0 4.6 30.27 +0.02
02:00 55 59 44 West 4.0 4.6 30.26 -
03:00 55 59 27 West 3.0 3.5 30.25 -0.03
04:00 55 59 44 WNW 5.0 5.8 30.24 -0.03
05:00 53 59 54 WNW 6.0 6.9 30.24 -0.02
06:00 52 58 36 NW 6.0 6.9 30.25 -
07:00 49 58 42 WNW 6.0 6.9 30.27 +0.03
08:00 51 58 32 WNW 6.0 6.9 30.28 +0.04
09:00 56 58 22 WNW 7.0 8.1 30.30 +0.04
10:00 59 58 17 NW 4.0 4.6 30.30 +0.03
11:00 60 59 15 NE 4.0 4.6 30.30 +0.01
12:00 60 59 16 ESE 5.0 5.8 30.28 -0.01
13:00 60 60 21 SE 8.0 9.2 30.25 -0.05
14:00 59 61 23 ESE 10.0 11.5 30.21 -0.08
15:00 59 61 33 ESE 13.0 15.0 30.19 -0.09
16:00 60 62 30 ESE 14.0 16.1 30.17 -0.08
17:00 60 62 32 ESE 12.0 13.8 30.17 -0.05
18:00 61 62 36 SE 13.0 15.0 30.16 -0.02
19:00 61 61 37 SE 16.0 18.4 30.16 -
20:00 61 61 43 SSE 16.0 18.4 30.17 -
21:00 62 61 45 SSE 15.0 17.3 30.17 +0.01
22:00 62 61 47 SSE 9.0 10.4 30.21 +0.05
23:00 62 61 57 SW 8.0 9.2 30.23 +0.06
00:00 59 61 63 West 6.0 6.9 30.25 +0.08
01:00 55 61 72 North 8.0 9.2 30.27 +0.05
02:00 54 60 72 North 8.0 9.2 30.27 +0.04
03:00 54 60 55 North 10.0 11.5 30.26 +0.01

Detailed Wave Spectra